KMWO/MWO METAR and TAF weather

Enter ICAO airport designator
Station Type Date Time Source
KMWO METAR 2019/06/27 04:35 UTC NOAA

KMWO 270435Z AUTO 00000KT 10SM BKN050 21/20 A3015 RMK AO2 T02110201


Station Type Date Time Source
KMWO Decoded METAR 2019/06/27 04:35 UTC NOAA

Station name not available
Jun 27, 2019 - 12:35 AM EDT / 2019.06.27 0435 UTC
Wind: Calm:0
Visibility: 10 mile(s):0
Sky conditions: mostly cloudy
Temperature: 70.0 F (21.1 C)
Dew Point: 68.2 F (20.1 C)
Relative Humidity: 94%
Pressure (altimeter): 30.15 in. Hg (1020 hPa)
ob: KMWO 270435Z AUTO 00000KT 10SM BKN050 21/20 A3015 RMK AO2 T02110201
cycle: 4

Station Type Date Time Source
KMWO TAF UTC NOAA

Error!

Example: see airport list